Flight Track Log - Related Links

Times and Time Zones

All times are in EDT time to prevent confusion due to time zone crossing. See the EGF4039 flight status page for this flight to view local times or setup timezone preferences in your user account.

Time Position Orientation Groundspeed Altitude Reporting Facility
EDT Latitude Longitude Course Direction KTS MPH feet Rate Location/Type
Mon 05:07:05 PM 42.5275 -92.2850 97° East 241 277 5,800  Level Chicago Center
Mon 05:08:07 PM 42.5203 -92.1781 95° East 238 274 9,400 2,323 Climbing Chicago Center
Mon 05:09:09 PM 42.5114 -92.0622 96° East 288 331 10,600 1,306 Climbing Chicago Center
Mon 05:10:00 PM 42.4884 -91.7391 97° East  Level FlightAware Approximate
Mon 05:10:11 PM 42.5014 -91.9258 96° East 336 387 12,100  Level Chicago Center
Mon 05:11:00 PM 42.4817 -91.6158 97° East  Level FlightAware Approximate
Mon 05:11:13 PM 42.4894 -91.7808 96° East 385 443 14,000  Level Chicago Center
Mon 05:12:00 PM 42.4700 -91.4929 97° East  Level FlightAware Approximate
Mon 05:12:15 PM 42.4753 -91.6017 96° East 405 466 16,400  Level Chicago Center
Mon 05:13:17 PM 42.4636 -91.4506 96° East 412 474 18,500 1,984 Climbing Chicago Center
Mon 05:14:19 PM 42.4506 -91.2986 97° East 413 475 20,500 1,790 Climbing Chicago Center
Mon 05:15:21 PM 42.4378 -91.1458 96° East 415 478 22,200 1,210 Climbing Chicago Center
Mon 05:16:23 PM 42.4203 -90.9506 97° East 439 505 23,000 387 Climbing Chicago Center
Mon 05:17:25 PM 42.4058 -90.7781 96° East 463 533 23,000  Level Chicago Center
Mon 05:18:27 PM 42.4119 -90.6028 87° East 492 566 23,000  Level Chicago Center
Mon 05:19:29 PM 42.4292 -90.4317 82° East 471 542 23,000  Level Chicago Center
Mon 05:20:31 PM 42.4461 -90.2608 82° East 464 534 23,000  Level Chicago Center
Mon 05:21:33 PM 42.4669 -90.0550 82° East 466 536 23,000  Level Chicago Center
Mon 05:22:35 PM 42.4839 -89.8844 82° East 462 532 23,000  Level Chicago Center
Mon 05:23:37 PM 42.4994 -89.7153 83° East 455 524 23,000  Level Chicago Center
Mon 05:24:39 PM 42.5164 -89.5431 82° East 460 529 23,000 -871 Level Chicago Center
Mon 05:25:41 PM 42.5350 -89.3422 83° East 461 531 21,200 -2,516 Descending Chicago Center
Mon 05:26:43 PM 42.5508 -89.1808 82° East 438 504 17,800 -3,024 Descending Chicago Center
Mon 05:27:46 PM 42.5336 -89.0267 99° East 416 479 14,900 -2,448 Descending Chicago Center
Mon 05:28:48 PM 42.4919 -88.8861 112° Southeast 404 465 12,700 -1,548 Descending Chicago Center
Mon 05:29:50 PM 42.4581 -88.7772 113° Southeast 317 365 11,700 -1,210 Descending Chicago Center
Mon 05:30:52 PM 42.4244 -88.6622 112° Southeast 285 328 10,200 -1,258 Descending Chicago Center
Mon 05:31:54 PM 42.3956 -88.5681 113° Southeast 274 315 9,100 -581 Descending Chicago Center
Mon 05:32:56 PM 42.3656 -88.4728 113° Southeast 275 316 9,000 -48 Descending Chicago Center
Mon 05:33:58 PM 42.3347 -88.3789 114° Southeast 274 315 9,000 -532 Level Chicago Center
Mon 05:35:00 PM 42.2983 -88.2825 117° Southeast 259 298 7,900 -726 Descending Chicago Center
Mon 05:36:02 PM 42.2556 -88.2331 139° Southeast 207 238 7,500 -581 Descending Chicago Center
Mon 05:37:04 PM 42.2189 -88.1911 140° Southeast 181 208 6,700 -919 Descending Chicago Center
Mon 05:38:06 PM 42.1819 -88.1506 141° Southeast 175 201 5,600 -871 Descending Chicago Center
Mon 05:39:08 PM 42.1469 -88.1117 141° Southeast 168 193 4,900 -823 Descending Chicago Center
Mon 05:40:10 PM 42.1142 -88.0728 139° Southeast 160 184 3,900 -984 Descending Chicago Center
Mon 05:41:10 PM 42.0833 -88.0333 136° Southeast 153 176 2,900 -1,000 Descending Chicago TRACON

Login

Don't have an account? Register now (free) for customized features, flight alerts, and more!